Strabane, United Kingdom
Current Conditions -  °F | °C
As of 5:20 PM on Wednesday 26 Nov 2014 (Local Time) from EGAE Reporting Station
Moderate Fog Moderate Fog  
Wind Chill: 36°   Ceiling: Unl
Heat Index: 36°   Visibility: 6mi
Dew Point: 34°   Wind: 3mph
Humidity: 93%   Direction: 270°W
Pressure: 29.83"   Gusts: NA
Location:  54.82°N, 7.47°W
Report Text: EGAE 261720Z 27003KT 9999 2500NW VCFG FEW014 02/01 Q1010
Loading
Personal Weather Stations






























Interactive Weather Map New forecast layout! Learn more

10-Day Weather Forecast

Advertisements
Track Severe Weather on mobile